Aérodrome :
LOGIN :

S'inscrire | Disclaimer

   EN    FR    IT 

 










Légende :    VFR   VFR Marginal   IFR   IFR Intensif   IFR Très Intensif
Visi : 
Plafond : 
>= 8 km
>= 3000ft
5 à 8 km
1000 à 3000 ft
1500m à 5 km
500 à 1000 ft
800 à 1500m
200 à 500 ft
< 800m
< 200 ft
Symboles :   Orages  Brouillard  Fortes neiges  Fortes précipitations  Vent > 20 kt
SIGMETs :   Divers  Orages  Givrage  Turbulence  Onde Orograph.  Cendres Volcan.






- Altitude de l'aérodrome : 600 ft
- Code IATA : VIE


LOWW - Vienna Schwechat

DERNIER METAR :
  • 291820Z 25007KT 220V280 9999 FEW028 SCT060 BKN160 04/M01 Q1011 R88/12//95 TEMPO 28017G27KT

METARs EXPIRÉS :
  • 291750Z 27011KT 9999 FEW050 BKN170 04/M01 Q1011 R88/12//95 TEMPO FM1845 28016G26KT SHRASN
  • 291720Z 28013KT 240V300 9999 FEW034 BKN050 05/M01 Q1010 R88/12//95 NOSIG
  • 291650Z 29008KT 250V310 9999 FEW034 BKN058 04/M02 Q1010 R88/12//95 NOSIG
  • 291620Z 29010KT 9999 FEW040 SCT210 05/M02 Q1010 R88/12//95 NOSIG
  • 291550Z 26007KT 9999 FEW044 SCT061 BKN250 05/M02 Q1010 R88/12//95 NOSIG

TAF TAF LOWW
Valide du 29 à 18h jusqu'au 31 à 00h UTC


291715Z 2918/3024 27008KT 9999 FEW035 BKN060 TX09/3013Z TN02/3023Z
TEMPO 2919/3001 29020G30KT SHRASN BKN030 FEW040TCU
FM300100 29015KT CAVOK
BECMG 3007/3009 27010KT
BECMG 3017/3019 19006KT



MET'MAP, la Météo Aéronautique d'un coup d'oeil ! - Copyright ORBIFLY Décembre 2007 - Disclaimer

ORBIFLY MET'MAP TEAM :

Programmation & Développement : Alexandra Zaïnal
Sur une idée originale de : Baudouin d'Aumeries
Assistance à la programmation : Marc-Olivier Méhu
Soutien technique & logistique : Manuel Goepfert

Contact : metmap@orbifly.com




SOURCES & CREDITS :

   NOAA